sensor_id;sensor_type;location;lat;lon;timestamp;pressure;altitude;pressure_sealevel;temperature;humidity
15662;BME280;7931;52.274;10.470;2022-09-09T00:02:04;99979.97;;;14.13;100.00
15662;BME280;7931;52.274;10.470;2022-09-09T00:04:34;99969.56;;;14.10;100.00
15662;BME280;7931;52.274;10.470;2022-09-09T00:07:10;99959.88;;;14.27;100.00
15662;BME280;7931;52.274;10.470;2022-09-09T00:13:05;99961.19;;;14.23;100.00
15662;BME280;7931;52.274;10.470;2022-09-09T00:18:28;99974.09;;;14.45;100.00
15662;BME280;7931;52.274;10.470;2022-09-09T00:21:08;99968.50;;;14.48;100.00
15662;BME280;7931;52.274;10.470;2022-09-09T00:23:55;99968.50;;;14.66;100.00
15662;BME280;7931;52.274;10.470;2022-09-09T00:32:11;99960.97;;;14.70;100.00
15662;BME280;7931;52.274;10.470;2022-09-09T00:34:51;99965.28;;;14.62;100.00
15662;BME280;7931;52.274;10.470;2022-09-09T00:37:19;99960.22;;;14.59;100.00
15662;BME280;7931;52.274;10.470;2022-09-09T00:39:47;99963.69;;;14.52;100.00
15662;BME280;7931;52.274;10.470;2022-09-09T00:42:24;99969.88;;;14.70;100.00
15662;BME280;7931;52.274;10.470;2022-09-09T00:45:01;99968.59;;;14.56;100.00
15662;BME280;7931;52.274;10.470;2022-09-09T00:47:50;99963.69;;;14.52;100.00
15662;BME280;7931;52.274;10.470;2022-09-09T00:56:09;99962.84;;;14.51;100.00
15662;BME280;7931;52.274;10.470;2022-09-09T00:58:36;99955.94;;;14.49;100.00
15662;BME280;7931;52.274;10.470;2022-09-09T01:01:07;99965.13;;;14.64;100.00
15662;BME280;7931;52.274;10.470;2022-09-09T01:03:48;99972.78;;;14.77;100.00
15662;BME280;7931;52.274;10.470;2022-09-09T01:06:36;99962.69;;;14.71;100.00
15662;BME280;7931;52.274;10.470;2022-09-09T01:09:21;99963.75;;;14.78;100.00
15662;BME280;7931;52.274;10.470;2022-09-09T01:12:14;99969.25;;;14.58;100.00
15662;BME280;7931;52.274;10.470;2022-09-09T01:15:23;99960.69;;;14.73;100.00
15662;BME280;7931;52.274;10.470;2022-09-09T01:18:09;99959.47;;;14.67;100.00
15662;BME280;7931;52.274;10.470;2022-09-09T01:20:49;99971.03;;;14.68;100.00
15662;BME280;7931;52.274;10.470;2022-09-09T01:26:19;99967.50;;;14.67;100.00
15662;BME280;7931;52.274;10.470;2022-09-09T01:28:49;99971.56;;;14.53;100.00
15662;BME280;7931;52.274;10.470;2022-09-09T01:34:00;99972.44;;;14.44;100.00
15662;BME280;7931;52.274;10.470;2022-09-09T01:36:31;99965.75;;;14.76;100.00
15662;BME280;7931;52.274;10.470;2022-09-09T01:39:00;99958.25;;;14.61;100.00
15662;BME280;7931;52.274;10.470;2022-09-09T01:41:26;99956.88;;;14.57;100.00
15662;BME280;7931;52.274;10.470;2022-09-09T01:43:53;99964.91;;;14.75;100.00
15662;BME280;7931;52.274;10.470;2022-09-09T01:46:22;99967.44;;;14.77;100.00
15662;BME280;7931;52.274;10.470;2022-09-09T01:48:48;99963.66;;;14.70;100.00
15662;BME280;7931;52.274;10.470;2022-09-09T01:51:15;99954.50;;;14.54;100.00
15662;BME280;7931;52.274;10.470;2022-09-09T01:53:41;99958.31;;;14.70;100.00
15662;BME280;7931;52.274;10.470;2022-09-09T01:59:50;99950.97;;;14.54;100.00
15662;BME280;7931;52.274;10.470;2022-09-09T02:04:40;99952.81;;;14.71;100.00
15662;BME280;7931;52.274;10.470;2022-09-09T02:07:19;99960.09;;;14.61;100.00
15662;BME280;7931;52.274;10.470;2022-09-09T02:09:53;99959.47;;;14.49;100.00
15662;BME280;7931;52.274;10.470;2022-09-09T02:12:23;99955.66;;;14.52;100.00
15662;BME280;7931;52.274;10.470;2022-09-09T02:14:55;99960.38;;;14.58;100.00
15662;BME280;7931;52.274;10.470;2022-09-09T02:17:28;99956.03;;;14.75;100.00
15662;BME280;7931;52.274;10.470;2022-09-09T02:20:03;99964.66;;;14.69;100.00
15662;BME280;7931;52.274;10.470;2022-09-09T02:22:30;99963.75;;;14.78;100.00
15662;BME280;7931;52.274;10.470;2022-09-09T02:24:57;99957.38;;;14.79;100.00
15662;BME280;7931;52.274;10.470;2022-09-09T02:27:24;99956.09;;;14.83;100.00
15662;BME280;7931;52.274;10.470;2022-09-09T02:29:51;99960.69;;;14.73;100.00
15662;BME280;7931;52.274;10.470;2022-09-09T02:32:22;99959.00;;;14.72;100.00
15662;BME280;7931;52.274;10.470;2022-09-09T02:35:02;99957.78;;;14.48;100.00
15662;BME280;7931;52.274;10.470;2022-09-09T02:37:33;99953.31;;;14.39;100.00
15662;BME280;7931;52.274;10.470;2022-09-09T02:40:05;99957.28;;;14.35;100.00
15662;BME280;7931;52.274;10.470;2022-09-09T02:42:32;99961.78;;;14.34;100.00
15662;BME280;7931;52.274;10.470;2022-09-09T02:44:57;99954.91;;;14.32;100.00
15662;BME280;7931;52.274;10.470;2022-09-09T02:50:03;99959.19;;;14.25;100.00
15662;BME280;7931;52.274;10.470;2022-09-09T02:52:45;99959.41;;;14.13;100.00
15662;BME280;7931;52.274;10.470;2022-09-09T02:57:55;99954.16;;;13.94;100.00
15662;BME280;7931;52.274;10.470;2022-09-09T03:00:26;99950.94;;;13.91;100.00
15662;BME280;7931;52.274;10.470;2022-09-09T03:02:53;99960.41;;;13.85;100.00
15662;BME280;7931;52.274;10.470;2022-09-09T03:05:20;99947.41;;;13.90;100.00
15662;BME280;7931;52.274;10.470;2022-09-09T03:07:46;99952.75;;;13.90;100.00
15662;BME280;7931;52.274;10.470;2022-09-09T03:10:12;99957.56;;;13.86;100.00
15662;BME280;7931;52.274;10.470;2022-09-09T03:12:38;99951.31;;;13.96;100.00
15662;BME280;7931;52.274;10.470;2022-09-09T03:15:05;99945.19;;;13.85;100.00
15662;BME280;7931;52.274;10.470;2022-09-09T03:17:30;99948.19;;;14.00;100.00
15662;BME280;7931;52.274;10.470;2022-09-09T03:19:56;99948.53;;;13.87;100.00
15662;BME280;7931;52.274;10.470;2022-09-09T03:22:23;99957.31;;;13.80;100.00
15662;BME280;7931;52.274;10.470;2022-09-09T03:24:48;99958.41;;;13.87;100.00
15662;BME280;7931;52.274;10.470;2022-09-09T03:27:13;99955.66;;;13.79;100.00
15662;BME280;7931;52.274;10.470;2022-09-09T03:29:42;99959.66;;;13.93;100.00
15662;BME280;7931;52.274;10.470;2022-09-09T03:32:08;99958.81;;;13.65;100.00
15662;BME280;7931;52.274;10.470;2022-09-09T03:34:36;99962.47;;;13.63;100.00
15662;BME280;7931;52.274;10.470;2022-09-09T03:37:04;99968.09;;;13.60;100.00
15662;BME280;7931;52.274;10.470;2022-09-09T03:39:30;99959.78;;;13.63;100.00
15662;BME280;7931;52.274;10.470;2022-09-09T03:41:56;99954.28;;;13.65;100.00
15662;BME280;7931;52.274;10.470;2022-09-09T03:44:21;99965.53;;;13.69;100.00
15662;BME280;7931;52.274;10.470;2022-09-09T03:46:46;99964.56;;;13.70;100.00
15662;BME280;7931;52.274;10.470;2022-09-09T03:49:12;99960.91;;;13.61;100.00
15662;BME280;7931;52.274;10.470;2022-09-09T03:51:38;99964.47;;;13.52;100.00
15662;BME280;7931;52.274;10.470;2022-09-09T03:54:04;99955.75;;;13.50;100.00
15662;BME280;7931;52.274;10.470;2022-09-09T03:56:30;99958.88;;;13.45;100.00
15662;BME280;7931;52.274;10.470;2022-09-09T03:58:56;99944.78;;;13.43;100.00
15662;BME280;7931;52.274;10.470;2022-09-09T04:01:22;99953.25;;;13.19;100.00
15662;BME280;7931;52.274;10.470;2022-09-09T04:03:48;99951.59;;;13.18;100.00
15662;BME280;7931;52.274;10.470;2022-09-09T04:06:14;99948.25;;;13.26;100.00
15662;BME280;7931;52.274;10.470;2022-09-09T04:08:40;99947.50;;;13.33;100.00
15662;BME280;7931;52.274;10.470;2022-09-09T04:11:06;99952.13;;;13.41;100.00
15662;BME280;7931;52.274;10.470;2022-09-09T04:13:34;99955.25;;;13.27;100.00
15662;BME280;7931;52.274;10.470;2022-09-09T04:16:01;99959.31;;;13.68;100.00
15662;BME280;7931;52.274;10.470;2022-09-09T04:18:28;99957.66;;;13.67;100.00
15662;BME280;7931;52.274;10.470;2022-09-09T04:20:53;99951.00;;;13.34;100.00
15662;BME280;7931;52.274;10.470;2022-09-09T04:23:20;99955.66;;;13.32;100.00
15662;BME280;7931;52.274;10.470;2022-09-09T04:25:52;99955.34;;;13.45;100.00
15662;BME280;7931;52.274;10.470;2022-09-09T04:28:19;99959.25;;;13.60;100.00
15662;BME280;7931;52.274;10.470;2022-09-09T04:30:45;99967.56;;;13.47;100.00
15662;BME280;7931;52.274;10.470;2022-09-09T04:33:11;99957.28;;;13.52;100.00
15662;BME280;7931;52.274;10.470;2022-09-09T04:35:38;99959.41;;;13.49;100.00
15662;BME280;7931;52.274;10.470;2022-09-09T04:38:04;99956.28;;;13.53;100.00
15662;BME280;7931;52.274;10.470;2022-09-09T04:40:30;99960.75;;;13.62;100.00
15662;BME280;7931;52.274;10.470;2022-09-09T04:43:02;99961.59;;;13.63;100.00
15662;BME280;7931;52.274;10.470;2022-09-09T04:45:30;99973.69;;;13.67;100.00
15662;BME280;7931;52.274;10.470;2022-09-09T04:47:56;99968.03;;;13.80;100.00
15662;BME280;7931;52.274;10.470;2022-09-09T04:50:21;99975.94;;;13.72;100.00
15662;BME280;7931;52.274;10.470;2022-09-09T04:52:47;99964.84;;;13.67;100.00
15662;BME280;7931;52.274;10.470;2022-09-09T04:55:12;99977.84;;;13.89;100.00
15662;BME280;7931;52.274;10.470;2022-09-09T04:57:38;99975.00;;;14.18;100.00
15662;BME280;7931;52.274;10.470;2022-09-09T05:00:04;99969.13;;;14.32;100.00
15662;BME280;7931;52.274;10.470;2022-09-09T05:02:30;99966.25;;;14.44;100.00
15662;BME280;7931;52.274;10.470;2022-09-09T05:04:55;99976.53;;;14.66;100.00
15662;BME280;7931;52.274;10.470;2022-09-09T05:07:21;99971.69;;;14.87;100.00
15662;BME280;7931;52.274;10.470;2022-09-09T05:09:46;99975.09;;;14.89;100.00
15662;BME280;7931;52.274;10.470;2022-09-09T05:12:15;99979.66;;;14.97;100.00
15662;BME280;7931;52.274;10.470;2022-09-09T05:14:42;99980.94;;;15.11;100.00
15662;BME280;7931;52.274;10.470;2022-09-09T05:17:08;99973.06;;;15.09;100.00
15662;BME280;7931;52.274;10.470;2022-09-09T05:19:33;99977.78;;;15.15;100.00
15662;BME280;7931;52.274;10.470;2022-09-09T05:21:58;99976.72;;;15.08;100.00
15662;BME280;7931;52.274;10.470;2022-09-09T05:24:24;99977.91;;;15.32;100.00
15662;BME280;7931;52.274;10.470;2022-09-09T05:26:49;99972.41;;;15.33;100.00
15662;BME280;7931;52.274;10.470;2022-09-09T05:29:15;99977.00;;;15.49;100.00
15662;BME280;7931;52.274;10.470;2022-09-09T05:31:43;99980.81;;;15.38;100.00
15662;BME280;7931;52.274;10.470;2022-09-09T05:34:09;99973.63;;;15.47;100.00
15662;BME280;7931;52.274;10.470;2022-09-09T05:36:34;99971.13;;;15.46;100.00
15662;BME280;7931;52.274;10.470;2022-09-09T05:38:59;99980.38;;;15.51;100.00
15662;BME280;7931;52.274;10.470;2022-09-09T05:41:26;99980.38;;;15.51;100.00
15662;BME280;7931;52.274;10.470;2022-09-09T05:43:52;99979.28;;;15.62;100.00
15662;BME280;7931;52.274;10.470;2022-09-09T05:46:20;99980.94;;;15.63;100.00
15662;BME280;7931;52.274;10.470;2022-09-09T05:48:47;99981.59;;;15.83;100.00
15662;BME280;7931;52.274;10.470;2022-09-09T05:51:21;99984.22;;;15.75;100.00
15662;BME280;7931;52.274;10.470;2022-09-09T05:53:48;99993.81;;;15.85;100.00
15662;BME280;7931;52.274;10.470;2022-09-09T05:56:19;99992.38;;;15.91;100.00
15662;BME280;7931;52.274;10.470;2022-09-09T05:58:45;99992.84;;;15.86;100.00
15662;BME280;7931;52.274;10.470;2022-09-09T06:03:41;100001.94;;;15.93;100.00
15662;BME280;7931;52.274;10.470;2022-09-09T06:06:09;100002.84;;;16.10;100.00
15662;BME280;7931;52.274;10.470;2022-09-09T06:08:37;99999.06;;;15.87;100.00
15662;BME280;7931;52.274;10.470;2022-09-09T06:11:08;99999.28;;;16.02;100.00
15662;BME280;7931;52.274;10.470;2022-09-09T06:13:34;99995.78;;;16.01;100.00
15662;BME280;7931;52.274;10.470;2022-09-09T06:16:02;100008.88;;;16.12;100.00
15662;BME280;7931;52.274;10.470;2022-09-09T06:18:28;100004.72;;;16.18;100.00
15662;BME280;7931;52.274;10.470;2022-09-09T06:21:04;100008.56;;;16.15;100.00
15662;BME280;7931;52.274;10.470;2022-09-09T06:23:30;100007.34;;;16.02;100.00
15662;BME280;7931;52.274;10.470;2022-09-09T06:26:16;100002.28;;;16.41;100.00
15662;BME280;7931;52.274;10.470;2022-09-09T06:28:44;100003.94;;;16.42;100.00
15662;BME280;7931;52.274;10.470;2022-09-09T06:31:12;100011.16;;;16.41;100.00
15662;BME280;7931;52.274;10.470;2022-09-09T06:33:39;100003.66;;;16.61;100.00
15662;BME280;7931;52.274;10.470;2022-09-09T06:36:10;100007.25;;;16.78;100.00
15662;BME280;7931;52.274;10.470;2022-09-09T06:38:36;100017.31;;;16.76;100.00
15662;BME280;7931;52.274;10.470;2022-09-09T06:41:01;100008.03;;;16.62;100.00
15662;BME280;7931;52.274;10.470;2022-09-09T06:43:27;100011.09;;;16.76;100.00
15662;BME280;7931;52.274;10.470;2022-09-09T06:46:19;100002.41;;;16.98;100.00
15662;BME280;7931;52.274;10.470;2022-09-09T06:48:47;100001.06;;;17.02;100.00
15662;BME280;7931;52.274;10.470;2022-09-09T06:51:15;100005.75;;;17.08;100.00
15662;BME280;7931;52.274;10.470;2022-09-09T06:53:42;100007.25;;;17.11;100.00
15662;BME280;7931;52.274;10.470;2022-09-09T06:58:35;100006.78;;;17.32;100.00
15662;BME280;7931;52.274;10.470;2022-09-09T07:01:05;100001.03;;;17.43;100.00
15662;BME280;7931;52.274;10.470;2022-09-09T07:03:31;100002.69;;;17.44;100.00
15662;BME280;7931;52.274;10.470;2022-09-09T07:05:57;100003.38;;;17.46;100.00
15662;BME280;7931;52.274;10.470;2022-09-09T07:08:23;99984.88;;;17.43;100.00
15662;BME280;7931;52.274;10.470;2022-09-09T07:10:51;99991.94;;;17.52;100.00
15662;BME280;7931;52.274;10.470;2022-09-09T07:13:28;99997.13;;;17.62;100.00
15662;BME280;7931;52.274;10.470;2022-09-09T07:15:53;99995.63;;;17.51;100.00
15662;BME280;7931;52.274;10.470;2022-09-09T07:18:19;100004.22;;;17.46;100.00
15662;BME280;7931;52.274;10.470;2022-09-09T07:20:55;100001.34;;;17.48;100.00
15662;BME280;7931;52.274;10.470;2022-09-09T07:23:22;100000.69;;;17.38;100.00
15662;BME280;7931;52.274;10.470;2022-09-09T07:25:48;99999.69;;;17.47;100.00
15662;BME280;7931;52.274;10.470;2022-09-09T07:28:14;99997.13;;;17.54;100.00
15662;BME280;7931;52.274;10.470;2022-09-09T07:30:40;100000.50;;;17.56;100.00
15662;BME280;7931;52.274;10.470;2022-09-09T07:33:06;100009.22;;;17.74;100.00
15662;BME280;7931;52.274;10.470;2022-09-09T07:35:32;100009.00;;;17.92;100.00
15662;BME280;7931;52.274;10.470;2022-09-09T07:37:58;100016.44;;;17.90;100.00
15662;BME280;7931;52.274;10.470;2022-09-09T07:40:25;100014.53;;;17.98;100.00
15662;BME280;7931;52.274;10.470;2022-09-09T07:42:51;100007.78;;;18.03;100.00
15662;BME280;7931;52.274;10.470;2022-09-09T07:45:16;100013.34;;;18.01;100.00
15662;BME280;7931;52.274;10.470;2022-09-09T07:47:41;100019.44;;;17.95;100.00
15662;BME280;7931;52.274;10.470;2022-09-09T07:50:10;100016.38;;;17.98;100.00
15662;BME280;7931;52.274;10.470;2022-09-09T07:52:36;100012.03;;;17.97;100.00
15662;BME280;7931;52.274;10.470;2022-09-09T07:55:02;100013.03;;;18.04;100.00
15662;BME280;7931;52.274;10.470;2022-09-09T07:57:30;100021.03;;;18.12;100.00
15662;BME280;7931;52.274;10.470;2022-09-09T07:59:56;100028.03;;;18.38;100.00
15662;BME280;7931;52.274;10.470;2022-09-09T08:02:23;100023.69;;;18.60;100.00
15662;BME280;7931;52.274;10.470;2022-09-09T08:04:49;100020.13;;;18.67;100.00
15662;BME280;7931;52.274;10.470;2022-09-09T08:07:15;100022.41;;;18.79;100.00
15662;BME280;7931;52.274;10.470;2022-09-09T08:09:41;100019.28;;;18.90;100.00
15662;BME280;7931;52.274;10.470;2022-09-09T08:12:07;100032.94;;;18.96;100.00
15662;BME280;7931;52.274;10.470;2022-09-09T08:14:33;100027.31;;;18.75;100.00
15662;BME280;7931;52.274;10.470;2022-09-09T08:16:58;100040.94;;;18.82;100.00
15662;BME280;7931;52.274;10.470;2022-09-09T08:19:27;100033.56;;;18.75;100.00
15662;BME280;7931;52.274;10.470;2022-09-09T08:21:57;100040.94;;;18.82;100.00
15662;BME280;7931;52.274;10.470;2022-09-09T08:24:22;100042.09;;;18.87;100.00
15662;BME280;7931;52.274;10.470;2022-09-09T08:26:48;100040.19;;;18.96;100.00
15662;BME280;7931;52.274;10.470;2022-09-09T08:29:14;100047.00;;;19.07;100.00
15662;BME280;7931;52.274;10.470;2022-09-09T08:31:47;100055.59;;;19.10;100.00
15662;BME280;7931;52.274;10.470;2022-09-09T08:34:13;100054.56;;;19.11;100.00
15662;BME280;7931;52.274;10.470;2022-09-09T08:36:42;100056.22;;;19.12;100.00
15662;BME280;7931;52.274;10.470;2022-09-09T08:39:08;100049.41;;;19.24;100.00
15662;BME280;7931;52.274;10.470;2022-09-09T08:44:36;100058.81;;;19.66;100.00
15662;BME280;7931;52.274;10.470;2022-09-09T08:50:12;100063.34;;;20.18;100.00
15662;BME280;7931;52.274;10.470;2022-09-09T08:55:24;100047.94;;;20.48;100.00
15662;BME280;7931;52.274;10.470;2022-09-09T08:57:53;100054.53;;;20.75;100.00
15662;BME280;7931;52.274;10.470;2022-09-09T09:00:20;100054.00;;;20.87;100.00
15662;BME280;7931;52.274;10.470;2022-09-09T09:03:09;100054.53;;;20.75;100.00
15662;BME280;7931;52.274;10.470;2022-09-09T09:06:01;100053.84;;;20.52;100.00
15662;BME280;7931;52.274;10.470;2022-09-09T09:08:36;100058.16;;;20.68;100.00
15662;BME280;7931;52.274;10.470;2022-09-09T09:11:03;100050.22;;;20.81;100.00
15662;BME280;7931;52.274;10.470;2022-09-09T09:13:38;100044.53;;;20.97;100.00
15662;BME280;7931;52.274;10.470;2022-09-09T09:16:15;100055.84;;;21.01;99.89
15662;BME280;7931;52.274;10.470;2022-09-09T09:18:43;100051.84;;;21.40;100.00
15662;BME280;7931;52.274;10.470;2022-09-09T09:21:16;100052.84;;;21.60;94.12
15662;BME280;7931;52.274;10.470;2022-09-09T09:24:05;100055.41;;;21.68;98.02
15662;BME280;7931;52.274;10.470;2022-09-09T09:26:35;100060.44;;;21.71;93.54
15662;BME280;7931;52.274;10.470;2022-09-09T09:29:10;100064.59;;;22.02;91.88
15662;BME280;7931;52.274;10.470;2022-09-09T09:31:37;100066.25;;;22.24;90.59
15662;BME280;7931;52.274;10.470;2022-09-09T09:34:02;100056.50;;;22.43;87.85
15662;BME280;7931;52.274;10.470;2022-09-09T09:36:58;100068.84;;;22.52;85.09
15662;BME280;7931;52.274;10.470;2022-09-09T09:39:31;100065.44;;;22.37;85.61
15662;BME280;7931;52.274;10.470;2022-09-09T09:42:12;100064.53;;;22.17;85.81
15662;BME280;7931;52.274;10.470;2022-09-09T09:44:40;100056.25;;;22.31;86.37
15662;BME280;7931;52.274;10.470;2022-09-09T09:47:11;100060.84;;;22.38;83.60
15662;BME280;7931;52.274;10.470;2022-09-09T09:49:37;100049.22;;;22.09;83.94
15662;BME280;7931;52.274;10.470;2022-09-09T09:52:04;100054.16;;;21.99;84.23
15662;BME280;7931;52.274;10.470;2022-09-09T09:54:33;100052.94;;;21.73;83.97
15662;BME280;7931;52.274;10.470;2022-09-09T09:57:11;100056.09;;;21.49;83.87
15662;BME280;7931;52.274;10.470;2022-09-09T09:59:38;100051.22;;;21.38;87.89
15662;BME280;7931;52.274;10.470;2022-09-09T10:02:13;100051.69;;;21.26;89.63
15662;BME280;7931;52.274;10.470;2022-09-09T10:04:40;100041.94;;;21.04;88.38
15662;BME280;7931;52.274;10.470;2022-09-09T10:07:21;100053.72;;;21.18;90.62
15662;BME280;7931;52.274;10.470;2022-09-09T10:09:55;100047.97;;;21.27;88.95
15662;BME280;7931;52.274;10.470;2022-09-09T10:26:55;100027.03;;;21.15;89.38
15662;BME280;7931;52.274;10.470;2022-09-09T10:32:18;100027.38;;;21.05;89.01
15662;BME280;7931;52.274;10.470;2022-09-09T10:35:09;100017.84;;;21.59;89.89
15662;BME280;7931;52.274;10.470;2022-09-09T10:52:16;100029.28;;;22.71;77.62
15662;BME280;7931;52.274;10.470;2022-09-09T10:57:32;100023.28;;;22.28;76.49
15662;BME280;7931;52.274;10.470;2022-09-09T11:00:03;100013.56;;;22.05;79.42
15662;BME280;7931;52.274;10.470;2022-09-09T11:02:32;100019.72;;;21.93;77.92
15662;BME280;7931;52.274;10.470;2022-09-09T11:05:10;100013.97;;;21.74;78.26
15662;BME280;7931;52.274;10.470;2022-09-09T11:07:42;100010.81;;;21.71;80.99
15662;BME280;7931;52.274;10.470;2022-09-09T11:10:19;100003.31;;;21.66;80.88
15662;BME280;7931;52.274;10.470;2022-09-09T11:12:48;99998.84;;;21.52;82.29
15662;BME280;7931;52.274;10.470;2022-09-09T11:15:20;100005.03;;;21.46;85.16
15662;BME280;7931;52.274;10.470;2022-09-09T11:17:52;100004.09;;;21.32;87.12
15662;BME280;7931;52.274;10.470;2022-09-09T11:20:20;100011.00;;;21.35;85.78
15662;BME280;7931;52.274;10.470;2022-09-09T11:22:51;100008.97;;;21.43;88.34
15662;BME280;7931;52.274;10.470;2022-09-09T11:25:31;100007.88;;;21.16;89.31
15662;BME280;7931;52.274;10.470;2022-09-09T11:36:35;100024.28;;;20.06;100.00
15662;BME280;7931;52.274;10.470;2022-09-09T11:44:41;100025.69;;;19.35;100.00
15662;BME280;7931;52.274;10.470;2022-09-09T11:47:26;100028.50;;;19.41;100.00
15662;BME280;7931;52.274;10.470;2022-09-09T11:50:29;100036.22;;;19.30;100.00
15662;BME280;7931;52.274;10.470;2022-09-09T11:55:39;100014.91;;;20.02;100.00
15662;BME280;7931;52.274;10.470;2022-09-09T11:58:05;100011.97;;;20.33;100.00
15662;BME280;7931;52.274;10.470;2022-09-09T12:00:45;100010.94;;;20.85;100.00
15662;BME280;7931;52.274;10.470;2022-09-09T12:03:40;100015.22;;;21.44;100.00
15662;BME280;7931;52.274;10.470;2022-09-09T12:06:32;100003.63;;;21.85;100.00
15662;BME280;7931;52.274;10.470;2022-09-09T12:09:06;100006.16;;;22.21;96.43
15662;BME280;7931;52.274;10.470;2022-09-09T12:11:33;100000.03;;;22.60;94.52
15662;BME280;7931;52.274;10.470;2022-09-09T12:13:59;99998.63;;;22.77;95.94
15662;BME280;7931;52.274;10.470;2022-09-09T12:16:34;99990.50;;;22.77;88.25
15662;BME280;7931;52.274;10.470;2022-09-09T12:19:21;99994.63;;;22.67;92.24
15662;BME280;7931;52.274;10.470;2022-09-09T12:22:07;100002.16;;;22.71;95.86
15662;BME280;7931;52.274;10.470;2022-09-09T12:24:45;99997.00;;;22.90;91.74
15662;BME280;7931;52.274;10.470;2022-09-09T12:27:33;100007.44;;;22.99;87.71
15662;BME280;7931;52.274;10.470;2022-09-09T12:30:07;100004.56;;;23.27;88.47
15662;BME280;7931;52.274;10.470;2022-09-09T12:32:35;100016.84;;;23.30;81.38
15662;BME280;7931;52.274;10.470;2022-09-09T12:35:09;100008.09;;;23.28;81.34
15662;BME280;7931;52.274;10.470;2022-09-09T12:38:00;100006.00;;;23.56;81.38
15662;BME280;7931;52.274;10.470;2022-09-09T12:40:29;99994.31;;;23.56;74.45
15662;BME280;7931;52.274;10.470;2022-09-09T12:42:54;99994.50;;;23.54;75.42
15662;BME280;7931;52.274;10.470;2022-09-09T12:45:28;99998.25;;;23.53;72.76
15662;BME280;7931;52.274;10.470;2022-09-09T12:48:00;100008.72;;;23.50;73.91
15662;BME280;7931;52.274;10.470;2022-09-09T12:50:34;99998.47;;;23.39;74.72
15662;BME280;7931;52.274;10.470;2022-09-09T12:53:28;99993.47;;;23.49;73.56
15662;BME280;7931;52.274;10.470;2022-09-09T12:55:59;99996.41;;;23.67;72.44
15662;BME280;7931;52.274;10.470;2022-09-09T12:58:26;99997.22;;;23.74;70.76
15662;BME280;7931;52.274;10.470;2022-09-09T13:00:55;100015.81;;;23.64;69.68
15662;BME280;7931;52.274;10.470;2022-09-09T13:03:25;100034.75;;;22.84;71.98
15662;BME280;7931;52.274;10.470;2022-09-09T13:05:52;100025.38;;;22.26;71.64
15662;BME280;7931;52.274;10.470;2022-09-09T13:08:19;100010.53;;;21.87;72.91
15662;BME280;7931;52.274;10.470;2022-09-09T13:11:15;100011.03;;;21.69;69.90
15662;BME280;7931;52.274;10.470;2022-09-09T13:13:43;100003.72;;;21.63;72.04
15662;BME280;7931;52.274;10.470;2022-09-09T13:16:20;99997.56;;;21.76;73.87
15662;BME280;7931;52.274;10.470;2022-09-09T13:18:50;99998.69;;;21.95;72.67
15662;BME280;7931;52.274;10.470;2022-09-09T13:21:16;99997.97;;;22.82;72.33
15662;BME280;7931;52.274;10.470;2022-09-09T13:23:48;99998.06;;;23.15;66.56
15662;BME280;7931;52.274;10.470;2022-09-09T13:26:22;99996.38;;;23.80;64.34
15662;BME280;7931;52.274;10.470;2022-09-09T13:28:48;99995.50;;;23.93;62.69
15662;BME280;7931;52.274;10.470;2022-09-09T13:31:29;99985.50;;;23.74;62.66
15662;BME280;7931;52.274;10.470;2022-09-09T13:33:55;99975.72;;;23.46;63.00
15662;BME280;7931;52.274;10.470;2022-09-09T13:36:31;99969.63;;;23.64;61.62
15662;BME280;7931;52.274;10.470;2022-09-09T13:39:01;99975.91;;;23.38;60.80
15662;BME280;7931;52.274;10.470;2022-09-09T13:41:42;99979.88;;;23.49;61.34
15662;BME280;7931;52.274;10.470;2022-09-09T13:44:24;99985.53;;;23.07;59.76
15662;BME280;7931;52.274;10.470;2022-09-09T13:47:05;99983.03;;;23.19;60.01
15662;BME280;7931;52.274;10.470;2022-09-09T13:49:30;99994.91;;;22.92;60.36
15662;BME280;7931;52.274;10.470;2022-09-09T13:52:13;99994.28;;;22.90;58.21
15662;BME280;7931;52.274;10.470;2022-09-09T13:54:39;99993.34;;;22.56;60.66
15662;BME280;7931;52.274;10.470;2022-09-09T13:57:13;99994.22;;;22.76;60.36
15662;BME280;7931;52.274;10.470;2022-09-09T13:59:40;100002.56;;;22.81;61.51
15662;BME280;7931;52.274;10.470;2022-09-09T14:02:07;99995.66;;;22.72;61.18
15662;BME280;7931;52.274;10.470;2022-09-09T14:04:32;99993.72;;;22.40;63.10
15662;BME280;7931;52.274;10.470;2022-09-09T14:07:00;99993.50;;;22.41;64.51
15662;BME280;7931;52.274;10.470;2022-09-09T14:09:26;99980.09;;;22.20;66.52
15662;BME280;7931;52.274;10.470;2022-09-09T14:11:51;99973.47;;;22.29;67.25
15662;BME280;7931;52.274;10.470;2022-09-09T14:14:17;99981.66;;;22.49;67.86
15662;BME280;7931;52.274;10.470;2022-09-09T14:16:42;99982.25;;;22.44;66.70
15662;BME280;7931;52.274;10.470;2022-09-09T14:19:08;99988.31;;;22.40;67.51
15662;BME280;7931;52.274;10.470;2022-09-09T14:21:34;99986.56;;;22.25;67.34
15662;BME280;7931;52.274;10.470;2022-09-09T14:23:59;99979.91;;;22.28;67.39
15662;BME280;7931;52.274;10.470;2022-09-09T14:26:26;99987.47;;;22.46;68.63
15662;BME280;7931;52.274;10.470;2022-09-09T14:28:54;99981.81;;;22.34;68.44
15662;BME280;7931;52.274;10.470;2022-09-09T14:31:19;99976.19;;;22.36;68.76
15662;BME280;7931;52.274;10.470;2022-09-09T14:33:45;99984.38;;;22.62;68.23
15662;BME280;7931;52.274;10.470;2022-09-09T14:36:10;99988.31;;;22.53;70.06
15662;BME280;7931;52.274;10.470;2022-09-09T14:38:37;99984.38;;;22.62;68.25
15662;BME280;7931;52.274;10.470;2022-09-09T14:41:10;99984.19;;;22.64;68.17
15662;BME280;7931;52.274;10.470;2022-09-09T14:43:40;99979.94;;;22.41;68.46
15662;BME280;7931;52.274;10.470;2022-09-09T14:46:16;99989.34;;;22.04;69.00
15662;BME280;7931;52.274;10.470;2022-09-09T14:48:42;99979.94;;;22.35;72.25